Time;durP1;ratioP1;P1;durP2;ratioP2;P2;SDS_P1;SDS_P2;PMS_P1;PMS_P2;Temp;Humidity;BMP_temperature;BMP_pressure;BME280_temperature;BME280_humidity;BME280_pressure;Samples;Min_cycle;Max_cycle;Signal;HPM_P1;HPM_P2
2022/11/11 00:00:15;;;;;;;18.17;6.30;;;12.00;99.90;;;;;;4955914;28;20053;-85
2022/11/11 00:02:41;;;;;;;15.77;6.25;;;12.00;99.90;;;;;;4982858;28;20045;-86
2022/11/11 00:05:07;;;;;;;18.25;7.00;;;12.00;99.90;;;;;;4960354;28;20034;-85
2022/11/11 00:07:32;;;;;;;15.82;6.75;;;12.00;99.90;;;;;;4959778;28;20036;-84
2022/11/11 00:09:58;;;;;;;14.95;6.60;;;12.00;99.90;;;;;;5003492;28;20034;-84
2022/11/11 00:12:23;;;;;;;18.70;6.47;;;11.90;99.90;;;;;;4965572;28;20037;-85
2022/11/11 00:14:49;;;;;;;15.70;6.25;;;12.60;99.90;;;;;;4951107;28;20046;-84
2022/11/11 00:25:27;;;;;;;17.92;7.20;;;;;;;;;;4958847;28;20045;-85
2022/11/11 00:27:53;;;;;;;19.85;6.72;;;11.90;99.90;;;;;;4970162;28;20061;-86
2022/11/11 00:30:19;;;;;;;14.95;7.15;;;11.80;99.90;;;;;;4955976;28;20046;-86
2022/11/11 00:32:44;;;;;;;15.88;7.03;;;11.80;99.90;;;;;;4940325;28;20399;-85
2022/11/11 00:38:06;;;;;;;15.45;7.18;;;11.80;99.90;;;;;;4958507;28;20468;-84
2022/11/11 00:40:32;;;;;;;16.00;7.15;;;11.80;99.90;;;;;;4953320;28;20062;-85
2022/11/11 00:42:57;;;;;;;15.43;7.07;;;11.80;99.90;;;;;;4940096;28;20062;-84
2022/11/11 00:45:23;;;;;;;14.95;6.28;;;11.80;99.90;;;;;;4956388;28;20251;-84
2022/11/11 00:53:22;;;;;;;18.08;7.13;;;11.80;99.90;;;;;;4971985;28;20495;-85
2022/11/11 00:55:48;;;;;;;18.40;7.00;;;11.80;99.90;;;;;;4954991;28;20046;-86
2022/11/11 00:58:15;;;;;;;15.85;7.00;;;11.80;99.90;;;;;;4924094;28;20044;-86
2022/11/11 01:00:42;;;;;;;14.88;7.15;;;11.80;99.90;;;;;;4923566;28;20057;-86
2022/11/11 01:03:08;;;;;;;16.65;7.72;;;11.80;99.90;;;;;;4924172;28;20038;-86
2022/11/11 01:05:36;;;;;;;17.33;7.28;;;11.80;99.90;;;;;;4955832;28;20046;-86
2022/11/11 01:08:02;;;;;;;17.55;7.20;;;11.80;99.90;;;;;;4939504;28;20405;-86
2022/11/11 01:10:43;;;;;;;16.20;7.88;;;11.80;99.90;;;;;;4954985;28;20042;-86
2022/11/11 01:13:32;;;;;;;17.38;7.43;;;12.40;99.90;;;;;;4956530;28;20091;-86
2022/11/11 01:16:03;;;;;;;16.55;7.20;;;11.90;99.90;;;;;;4953202;28;20054;-85
2022/11/11 01:18:29;;;;;;;16.88;7.18;;;11.80;99.90;;;;;;4947813;28;20053;-86
2022/11/11 01:20:57;;;;;;;16.23;7.30;;;13.00;99.90;;;;;;4942163;28;20458;-86
2022/11/11 01:23:23;;;;;;;17.92;7.05;;;11.90;99.90;;;;;;4957498;28;20050;-85
2022/11/11 01:25:48;;;;;;;15.73;7.38;;;11.90;99.90;;;;;;4957607;28;20053;-85
2022/11/11 01:28:14;;;;;;;14.63;7.22;;;11.90;99.90;;;;;;4958465;28;20474;-86
2022/11/11 01:30:40;;;;;;;14.35;6.53;;;11.90;99.90;;;;;;4941447;28;20495;-86
2022/11/11 01:33:08;;;;;;;15.40;7.78;;;11.90;99.90;;;;;;4937883;28;20447;-86
2022/11/11 01:35:37;;;;;;;16.35;7.50;;;11.90;99.90;;;;;;4972690;28;20495;-85
2022/11/11 01:38:03;;;;;;;16.05;7.18;;;11.90;99.90;;;;;;4957939;28;20050;-86
2022/11/11 01:40:29;;;;;;;17.52;7.45;;;11.90;99.90;;;;;;4926227;28;20076;-85
2022/11/11 01:43:04;;;;;;;17.38;7.25;;;11.90;99.90;;;;;;4924316;28;20039;-86
2022/11/11 01:45:42;;;;;;;18.60;7.20;;;11.90;99.90;;;;;;4969661;28;20077;-85
2022/11/11 01:51:19;;;;;;;15.98;7.80;;;11.90;99.90;;;;;;4961890;28;20065;-85
2022/11/11 01:53:48;;;;;;;15.63;7.30;;;11.90;99.90;;;;;;4972067;28;20114;-86
2022/11/11 01:56:14;;;;;;;16.23;7.03;;;12.10;99.90;;;;;;4973675;28;20518;-85
2022/11/11 01:58:40;;;;;;;17.63;8.00;;;11.90;99.90;;;;;;4940632;28;20045;-86
2022/11/11 02:01:05;;;;;;;13.55;6.63;;;12.30;99.90;;;;;;4941341;28;20030;-85
2022/11/11 02:03:37;;;;;;;16.20;6.93;;;12.00;99.90;;;;;;4948187;28;20043;-86
2022/11/11 02:06:02;;;;;;;20.23;7.38;;;11.90;99.90;;;;;;4971727;28;20034;-86
2022/11/11 02:08:32;;;;;;;17.65;7.80;;;12.00;99.90;;;;;;4936339;28;20101;-85
2022/11/11 02:14:36;;;;;;;19.00;7.13;;;12.00;99.90;;;;;;4895401;29;20056;-86
2022/11/11 02:17:04;;;;;;;17.88;7.30;;;12.20;99.90;;;;;;4922583;28;20054;-86
2022/11/11 02:20:00;;;;;;;16.50;7.20;;;12.20;99.90;;;;;;4957811;28;20180;-85
2022/11/11 02:22:56;;;;;;;16.30;7.45;;;12.00;99.90;;;;;;4955040;28;20038;-85
2022/11/11 02:25:28;;;;;;;14.02;7.50;;;12.00;99.90;;;;;;4948780;28;20112;-86
2022/11/11 02:27:58;;;;;;;17.80;7.43;;;12.20;99.90;;;;;;4956594;28;20487;-86
2022/11/11 02:30:24;;;;;;;16.35;7.60;;;12.00;99.90;;;;;;4956087;28;20104;-86
2022/11/11 02:32:52;;;;;;;16.48;7.00;;;12.00;99.90;;;;;;4968969;28;20129;-85
2022/11/11 02:35:29;;;;;;;17.92;7.70;;;12.10;99.90;;;;;;4957051;28;20111;-86
2022/11/11 02:37:55;;;;;;;18.67;7.63;;;12.00;99.90;;;;;;4973242;28;20062;-86
2022/11/11 02:40:33;;;;;;;16.95;7.85;;;12.00;99.90;;;;;;4940897;28;20462;-85
2022/11/11 02:42:59;;;;;;;15.90;7.47;;;12.00;99.90;;;;;;4954974;28;20098;-85
2022/11/11 02:45:26;;;;;;;16.17;8.10;;;12.00;99.90;;;;;;4956993;28;20045;-86
2022/11/11 02:47:51;;;;;;;18.42;8.40;;;12.00;99.90;;;;;;4956036;28;20068;-86
2022/11/11 02:50:17;;;;;;;17.70;9.27;;;13.00;99.90;;;;;;4956966;28;20078;-85
2022/11/11 02:52:42;;;;;;;17.58;8.40;;;11.90;99.90;;;;;;4940796;28;20037;-85
2022/11/11 02:55:09;;;;;;;19.98;8.95;;;12.00;99.90;;;;;;4955079;28;20273;-86
2022/11/11 02:57:35;;;;;;;19.83;9.10;;;12.60;99.90;;;;;;4969649;28;20042;-85
2022/11/11 03:00:01;;;;;;;17.75;9.30;;;11.90;99.90;;;;;;4956677;28;20050;-85
2022/11/11 03:02:28;;;;;;;19.25;9.50;;;11.90;99.90;;;;;;4940766;28;20368;-85
2022/11/11 03:04:57;;;;;;;20.05;9.88;;;11.90;99.90;;;;;;4970717;28;20296;-86
2022/11/11 03:07:24;;;;;;;17.85;10.07;;;11.80;99.90;;;;;;4969600;28;20114;-85
2022/11/11 03:09:50;;;;;;;21.40;10.77;;;12.50;99.90;;;;;;4955567;28;20486;-86
2022/11/11 03:12:16;;;;;;;17.33;10.13;;;11.80;99.90;;;;;;4956450;28;20042;-85
2022/11/11 03:14:42;;;;;;;20.92;11.18;;;11.80;99.90;;;;;;4954366;28;20049;-85
2022/11/11 03:21:03;;;;;;;23.58;12.02;;;12.00;99.90;;;;;;4969235;28;20055;-86
2022/11/11 03:22:38;;;;;;;20.08;12.02;;;11.70;99.90;;;;;;4955839;28;20511;-85
2022/11/11 03:27:48;;;;;;;21.70;12.60;;;11.60;99.90;;;;;;4955701;28;20078;-85
2022/11/11 03:30:14;;;;;;;20.48;12.57;;;11.60;99.90;;;;;;4937614;28;20070;-85
2022/11/11 03:32:39;;;;;;;20.75;12.93;;;11.60;99.90;;;;;;4935820;28;20562;-86
2022/11/11 03:35:05;;;;;;;22.35;12.63;;;11.60;99.90;;;;;;4953024;28;20050;-86
2022/11/11 03:40:15;;;;;;;25.20;13.75;;;11.50;99.90;;;;;;4941881;28;20085;-86
2022/11/11 03:42:42;;;;;;;22.25;13.23;;;11.50;99.90;;;;;;4967734;28;20063;-85
2022/11/11 03:45:08;;;;;;;22.77;13.43;;;11.50;99.90;;;;;;4953051;28;20039;-86
2022/11/11 03:47:34;;;;;;;24.38;13.90;;;11.50;99.90;;;;;;4948841;28;20066;-85
2022/11/11 03:50:00;;;;;;;19.77;13.25;;;12.30;99.90;;;;;;4936664;28;20078;-85
2022/11/11 03:52:25;;;;;;;21.13;14.30;;;11.40;99.90;;;;;;4952852;28;20216;-85
2022/11/11 03:54:51;;;;;;;26.10;14.68;;;11.40;99.90;;;;;;4937026;28;20077;-86
2022/11/11 03:57:32;;;;;;;26.27;14.82;;;11.40;99.90;;;;;;4946177;29;20054;-85
2022/11/11 03:59:58;;;;;;;27.88;15.15;;;11.40;99.90;;;;;;4933870;29;20102;-85
2022/11/11 04:10:36;;;;;;;23.55;14.55;;;11.40;99.90;;;;;;4953915;28;20058;-85
2022/11/11 04:16:04;;;;;;;26.10;15.25;;;11.40;99.90;;;;;;4946109;28;20094;-86
2022/11/11 04:23:59;;;;;;;26.67;15.23;;;11.40;99.90;;;;;;4972767;28;20062;-85
2022/11/11 04:26:24;;;;;;;25.50;15.82;;;11.30;99.90;;;;;;4938320;28;20492;-86
2022/11/11 04:31:34;;;;;;;25.30;15.73;;;11.30;99.90;;;;;;4958056;28;20054;-87
2022/11/11 04:34:00;;;;;;;25.65;16.50;;;11.40;99.90;;;;;;4955826;28;20042;-86
2022/11/11 04:36:25;;;;;;;25.50;15.40;;;11.30;99.90;;;;;;4956153;28;20055;-86
2022/11/11 04:41:35;;;;;;;25.20;16.35;;;11.40;99.90;;;;;;4947276;28;20523;-85
2022/11/11 04:46:45;;;;;;;25.17;14.82;;;11.30;99.90;;;;;;4958311;28;20064;-85
2022/11/11 04:49:10;;;;;;;26.60;16.40;;;11.30;99.90;;;;;;4939727;28;20043;-85
2022/11/11 04:54:20;;;;;;;27.15;17.58;;;12.10;99.90;;;;;;4945785;28;20125;-86
2022/11/11 04:56:53;;;;;;;27.10;16.73;;;11.30;99.90;;;;;;4939511;28;20047;-86
2022/11/11 04:59:19;;;;;;;;;;;11.80;99.90;;;;;;4925202;28;20055;-86
2022/11/11 05:04:30;;;;;;;27.25;16.17;;;11.30;99.90;;;;;;4971696;28;20114;-85
2022/11/11 05:09:39;;;;;;;27.88;16.92;;;11.90;99.90;;;;;;4944137;28;20078;-85
2022/11/11 05:12:05;;;;;;;26.83;17.40;;;11.20;99.90;;;;;;4935241;28;20074;-85
2022/11/11 05:22:44;;;;;;;28.77;18.20;;;11.20;99.90;;;;;;4969081;28;20043;-85
2022/11/11 05:25:29;;;;;;;26.65;18.52;;;11.20;99.90;;;;;;4954550;28;20045;-86
2022/11/11 05:27:58;;;;;;;28.52;17.02;;;11.20;99.90;;;;;;4959303;28;20038;-85
2022/11/11 05:30:25;;;;;;;26.80;17.85;;;11.20;99.90;;;;;;4939076;28;20126;-85
2022/11/11 05:32:53;;;;;;;27.15;18.23;;;11.20;99.90;;;;;;4952695;28;20049;-85
2022/11/11 05:35:18;;;;;;;28.88;18.30;;;11.20;99.90;;;;;;4954802;28;20042;-85
2022/11/11 05:38:19;;;;;;;30.23;18.83;;;11.20;99.90;;;;;;4937615;28;20124;-85
2022/11/11 05:40:30;;;;;;;29.50;18.00;;;11.20;99.90;;;;;;4966278;28;20046;-85
2022/11/11 05:42:56;;;;;;;30.63;17.80;;;11.20;99.90;;;;;;4953223;28;20112;-85
2022/11/11 05:45:21;;;;;;;26.90;17.17;;;11.20;99.90;;;;;;4938645;28;20049;-85
2022/11/11 05:47:47;;;;;;;27.55;17.55;;;11.20;99.90;;;;;;4934865;29;20582;-85
2022/11/11 05:50:13;;;;;;;28.50;17.83;;;11.20;99.90;;;;;;4932860;28;20407;-85
2022/11/11 05:52:39;;;;;;;26.95;16.98;;;11.20;99.90;;;;;;4920288;28;20526;-85
2022/11/11 05:55:05;;;;;;;27.15;18.45;;;12.40;99.90;;;;;;4933773;28;20042;-84
2022/11/11 05:57:31;;;;;;;25.52;17.73;;;11.20;99.90;;;;;;4950607;28;20521;-84
2022/11/11 05:59:57;;;;;;;26.63;17.15;;;11.50;99.90;;;;;;4950906;28;20042;-85
2022/11/11 06:02:23;;;;;;;29.10;16.90;;;11.20;99.90;;;;;;4932683;28;20046;-85
2022/11/11 06:04:49;;;;;;;27.45;16.20;;;11.10;99.90;;;;;;4937994;28;20166;-84
2022/11/11 06:07:14;;;;;;;23.52;15.70;;;11.10;99.90;;;;;;4936946;28;20098;-85
2022/11/11 06:09:40;;;;;;;26.13;15.70;;;11.10;99.90;;;;;;4936861;28;20046;-85
2022/11/11 06:12:06;;;;;;;24.45;16.58;;;11.60;99.90;;;;;;4968049;28;20043;-85
2022/11/11 06:14:31;;;;;;;29.15;16.83;;;11.10;99.90;;;;;;4953757;28;20035;-85
2022/11/11 06:16:57;;;;;;;25.65;16.63;;;11.10;99.90;;;;;;4937643;28;20058;-85
2022/11/11 06:19:23;;;;;;;28.38;16.02;;;10.70;99.90;;;;;;4935794;28;20542;-84
2022/11/11 06:21:57;;;;;;;28.15;16.98;;;11.10;99.90;;;;;;4934614;28;20031;-85
2022/11/11 06:24:23;;;;;;;25.60;16.45;;;11.70;99.90;;;;;;4950173;28;20046;-85
2022/11/11 06:26:49;;;;;;;25.90;16.05;;;11.30;99.90;;;;;;4930089;28;20042;-86
2022/11/11 06:29:15;;;;;;;25.50;16.60;;;11.30;99.90;;;;;;4944095;28;20070;-86
2022/11/11 06:31:43;;;;;;;25.48;15.63;;;11.30;99.90;;;;;;4953167;28;20121;-87
2022/11/11 06:34:09;;;;;;;25.77;15.55;;;11.30;99.90;;;;;;4937742;28;20122;-87
2022/11/11 06:36:34;;;;;;;26.52;15.93;;;11.40;99.90;;;;;;4935768;28;20118;-87
2022/11/11 06:39:00;;;;;;;24.08;15.77;;;11.40;99.90;;;;;;4938262;28;20054;-87
2022/11/11 06:41:30;;;;;;;25.75;15.63;;;12.00;99.90;;;;;;4935419;28;20502;-87
2022/11/11 06:43:56;;;;;;;27.75;16.92;;;11.40;99.90;;;;;;4938362;28;20039;-88
2022/11/11 06:46:24;;;;;;;28.35;16.58;;;11.40;99.90;;;;;;4934581;29;20039;-88
2022/11/11 06:48:52;;;;;;;26.58;16.10;;;11.40;99.90;;;;;;4953271;28;20207;-87
2022/11/11 06:51:18;;;;;;;29.48;16.75;;;11.40;99.90;;;;;;4952123;28;20117;-87
2022/11/11 06:53:44;;;;;;;28.67;17.63;;;11.50;99.90;;;;;;4953557;28;20181;-87
2022/11/11 06:56:11;;;;;;;29.13;16.40;;;11.40;99.90;;;;;;4937660;28;20050;-87
2022/11/11 06:58:40;;;;;;;27.13;16.15;;;11.40;99.90;;;;;;4934278;28;20078;-85
2022/11/11 07:01:07;;;;;;;28.90;16.42;;;11.40;99.90;;;;;;4964021;28;20031;-85
2022/11/11 07:03:33;;;;;;;25.55;15.90;;;11.60;99.90;;;;;;4934946;28;20046;-86
2022/11/11 07:06:03;;;;;;;26.52;16.90;;;11.60;99.90;;;;;;4935089;28;20051;-84
2022/11/11 07:08:30;;;;;;;26.38;17.40;;;11.50;99.90;;;;;;4934061;28;20039;-86
2022/11/11 07:10:56;;;;;;;26.27;17.23;;;12.80;99.90;;;;;;4918803;28;20042;-87
2022/11/11 07:13:22;;;;;;;27.20;16.83;;;11.50;99.90;;;;;;4950791;28;20042;-86
2022/11/11 07:15:48;;;;;;;28.42;16.50;;;11.50;99.90;;;;;;4954946;28;20046;-87
2022/11/11 07:18:14;;;;;;;24.33;15.82;;;11.50;99.90;;;;;;4938987;28;20585;-83
2022/11/11 07:20:39;;;;;;;28.95;17.55;;;11.50;99.90;;;;;;4924061;28;20089;-86
2022/11/11 07:23:05;;;;;;;26.70;16.30;;;11.50;99.90;;;;;;4954302;28;20376;-86
2022/11/11 07:25:32;;;;;;;26.60;16.88;;;11.40;99.90;;;;;;4956675;28;20438;-85
2022/11/11 07:27:57;;;;;;;27.80;16.25;;;11.50;99.90;;;;;;4955130;28;20038;-85
2022/11/11 07:30:23;;;;;;;27.40;16.80;;;12.80;99.90;;;;;;4938542;28;20068;-85
2022/11/11 07:32:51;;;;;;;31.30;17.35;;;11.50;99.90;;;;;;4938165;28;20038;-87
2022/11/11 07:35:17;;;;;;;25.30;16.77;;;11.50;99.90;;;;;;4956394;28;20082;-86
2022/11/11 07:37:43;;;;;;;27.58;16.65;;;11.50;99.90;;;;;;4940161;28;20081;-88
2022/11/11 07:40:12;;;;;;;24.20;16.30;;;11.50;99.90;;;;;;4971255;28;20035;-85
2022/11/11 07:42:39;;;;;;;28.58;16.40;;;11.50;99.90;;;;;;4955374;28;20394;-86
2022/11/11 07:45:06;;;;;;;25.73;16.63;;;12.20;99.90;;;;;;4952917;28;20619;-86
2022/11/11 07:47:33;;;;;;;26.13;16.08;;;11.50;99.90;;;;;;4949077;28;20447;-85
2022/11/11 07:50:00;;;;;;;26.80;16.27;;;11.60;99.90;;;;;;4954253;28;20042;-86
2022/11/11 07:52:26;;;;;;;28.33;17.08;;;11.50;99.90;;;;;;4969371;28;20042;-87
2022/11/11 07:54:52;;;;;;;26.27;17.17;;;11.50;99.90;;;;;;4937445;28;20641;-86
2022/11/11 07:57:17;;;;;;;28.48;17.27;;;11.50;99.90;;;;;;4942289;28;20046;-85
2022/11/11 07:59:43;;;;;;;28.00;16.45;;;11.50;99.90;;;;;;4941931;28;20054;-85
2022/11/11 08:02:10;;;;;;;28.63;16.48;;;11.50;99.90;;;;;;4974088;28;20078;-85
2022/11/11 08:04:36;;;;;;;27.33;16.27;;;11.50;99.90;;;;;;4957330;28;20042;-89
2022/11/11 08:07:02;;;;;;;28.45;17.45;;;11.40;99.90;;;;;;4959770;28;20034;-86
2022/11/11 08:09:27;;;;;;;26.75;16.23;;;11.50;99.90;;;;;;4975643;28;20382;-86
2022/11/11 08:14:37;;;;;;;27.80;15.77;;;11.50;99.90;;;;;;4947369;28;20125;-85
2022/11/11 08:17:03;;;;;;;24.70;16.25;;;11.50;99.90;;;;;;4942543;28;20133;-85
2022/11/11 08:19:28;;;;;;;26.88;16.45;;;11.50;99.90;;;;;;4924203;28;20054;-86
2022/11/11 08:21:54;;;;;;;29.63;16.00;;;12.50;99.90;;;;;;4970950;28;20042;-86
2022/11/11 08:24:20;;;;;;;25.50;15.43;;;11.50;99.90;;;;;;4947784;28;20045;-86
2022/11/11 08:26:46;;;;;;;22.95;15.93;;;11.50;99.90;;;;;;4925329;28;20041;-85
2022/11/11 08:29:12;;;;;;;31.67;16.85;;;11.50;99.90;;;;;;4943218;28;20454;-85
2022/11/11 08:31:38;;;;;;;23.63;15.30;;;11.70;99.90;;;;;;4940127;28;20047;-84
2022/11/11 08:34:04;;;;;;;25.90;15.00;;;11.50;99.90;;;;;;4942260;28;20133;-85
2022/11/11 08:36:30;;;;;;;29.00;15.50;;;11.50;99.90;;;;;;4953263;28;20034;-86
2022/11/11 08:38:56;;;;;;;25.70;15.30;;;11.50;99.90;;;;;;4940561;28;20047;-86
2022/11/11 08:41:22;;;;;;;25.30;15.60;;;11.50;99.90;;;;;;4940910;28;20270;-86
2022/11/11 08:43:53;;;;;;;26.40;15.57;;;11.50;99.90;;;;;;4942435;28;20132;-84
2022/11/11 08:46:19;;;;;;;21.42;14.85;;;11.60;99.90;;;;;;4975070;28;20419;-84
2022/11/11 08:48:44;;;;;;;25.52;14.55;;;12.20;99.90;;;;;;4942765;28;20039;-84
2022/11/11 08:51:11;;;;;;;25.05;15.25;;;12.40;99.90;;;;;;4971788;28;20042;-85
2022/11/11 08:53:37;;;;;;;27.38;15.52;;;11.60;99.90;;;;;;4939311;28;20403;-85
2022/11/11 08:56:03;;;;;;;28.52;14.38;;;11.60;99.90;;;;;;4939119;28;20038;-85
2022/11/11 08:58:29;;;;;;;25.23;14.95;;;11.60;99.90;;;;;;4938599;28;20042;-86
2022/11/11 09:00:55;;;;;;;25.85;14.98;;;11.60;99.90;;;;;;4937609;28;20035;-86
2022/11/11 09:03:21;;;;;;;29.42;14.73;;;11.60;99.90;;;;;;4937682;28;20049;-87
2022/11/11 09:05:47;;;;;;;26.27;15.00;;;11.60;99.90;;;;;;4946388;28;20411;-91
2022/11/11 09:08:13;;;;;;;24.48;14.20;;;11.60;99.90;;;;;;4954387;28;20292;-86
2022/11/11 09:10:40;;;;;;;25.00;14.27;;;11.60;99.90;;;;;;4940151;28;20181;-85
2022/11/11 09:13:06;;;;;;;26.00;14.13;;;11.60;99.90;;;;;;4958524;28;20050;-86
2022/11/11 09:15:32;;;;;;;24.33;14.32;;;11.60;99.90;;;;;;4957051;28;20092;-88
2022/11/11 09:17:58;;;;;;;22.48;14.30;;;11.60;99.90;;;;;;4938309;28;20054;-86
2022/11/11 09:20:24;;;;;;;21.60;13.95;;;11.60;99.90;;;;;;4964856;28;20046;-85
2022/11/11 09:22:51;;;;;;;22.38;13.55;;;11.60;99.90;;;;;;4967175;28;20038;-86
2022/11/11 09:25:18;;;;;;;22.20;13.75;;;11.60;99.90;;;;;;4948546;28;20038;-87
2022/11/11 09:27:52;;;;;;;23.70;13.88;;;11.70;99.90;;;;;;4952759;28;20089;-86
2022/11/11 09:30:17;;;;;;;21.45;13.70;;;11.80;99.90;;;;;;4970009;28;20045;-87
2022/11/11 09:32:43;;;;;;;24.48;13.50;;;11.70;99.90;;;;;;4954183;28;20402;-86
2022/11/11 09:35:09;;;;;;;24.35;13.38;;;11.70;99.90;;;;;;4966697;28;20093;-88
2022/11/11 09:37:34;;;;;;;21.50;13.23;;;11.70;99.90;;;;;;4937759;28;20407;-86
2022/11/11 09:40:00;;;;;;;22.67;13.52;;;11.70;99.90;;;;;;4918741;28;20069;-87
2022/11/11 09:42:41;;;;;;;22.45;13.23;;;11.70;99.90;;;;;;4967159;28;20259;-87
2022/11/11 09:45:32;;;;;;;22.38;13.43;;;11.70;99.90;;;;;;4951028;28;20039;-86
2022/11/11 09:48:18;;;;;;;22.40;13.45;;;11.70;99.90;;;;;;4945528;28;20550;-87
2022/11/11 09:50:53;;;;;;;20.45;13.60;;;11.70;99.90;;;;;;4969274;28;20050;-87
2022/11/11 09:53:33;;;;;;;23.30;13.25;;;11.80;99.90;;;;;;4952858;28;20205;-86
2022/11/11 09:56:14;;;;;;;19.55;13.05;;;12.20;99.90;;;;;;4953201;28;20042;-86
2022/11/11 09:58:47;;;;;;;22.98;13.52;;;11.70;99.90;;;;;;4947891;28;20039;-86
2022/11/11 10:01:20;;;;;;;21.38;13.20;;;11.70;99.90;;;;;;4970043;28;20050;-86
2022/11/11 10:03:48;;;;;;;;;;;11.70;99.90;;;;;;4951804;28;20038;-86
2022/11/11 10:06:26;;;;;;;21.20;13.30;;;11.70;99.90;;;;;;4952616;28;19918;-87
2022/11/11 10:09:02;;;;;;;24.65;13.13;;;11.60;99.90;;;;;;4969607;28;20035;-87
2022/11/11 10:11:56;;;;;;;22.38;13.55;;;11.60;99.90;;;;;;4953228;28;20051;-88
2022/11/11 10:14:21;;;;;;;21.73;12.82;;;11.60;99.90;;;;;;4966975;28;20101;-87
2022/11/11 10:16:59;;;;;;;23.95;13.52;;;11.70;99.90;;;;;;4936986;28;20507;-87
2022/11/11 10:19:33;;;;;;;19.88;13.25;;;12.20;99.90;;;;;;4964115;28;20487;-86
2022/11/11 10:22:04;;;;;;;25.42;13.15;;;11.60;99.90;;;;;;4953284;28;20050;-89
2022/11/11 10:24:41;;;;;;;21.27;13.70;;;11.60;99.90;;;;;;4966597;28;20061;-86
2022/11/11 10:27:17;;;;;;;23.33;12.95;;;11.60;99.90;;;;;;4953664;28;20243;-85
2022/11/11 10:29:43;;;;;;;21.58;13.27;;;11.60;99.90;;;;;;4952780;28;20514;-86
2022/11/11 10:32:26;;;;;;;21.20;13.80;;;11.70;99.90;;;;;;4950266;28;20043;-85
2022/11/11 10:34:53;;;;;;;;;;;11.60;99.90;;;;;;4952574;28;20096;-86
2022/11/11 10:37:24;;;;;;;19.63;13.23;;;11.60;99.90;;;;;;4968048;28;19918;-86
2022/11/11 10:40:17;;;;;;;18.95;12.80;;;11.60;99.90;;;;;;4950987;28;20113;-87
2022/11/11 10:42:43;;;;;;;21.65;13.15;;;11.60;99.90;;;;;;4969114;28;20038;-86
2022/11/11 10:45:30;;;;;;;22.17;13.60;;;11.90;99.90;;;;;;4971059;28;20039;-87
2022/11/11 10:48:11;;;;;;;20.30;13.20;;;11.60;99.90;;;;;;4951400;28;20070;-86
2022/11/11 10:50:49;;;;;;;21.38;13.13;;;11.70;99.90;;;;;;4951897;28;20046;-88
2022/11/11 10:53:50;;;;;;;22.77;12.95;;;11.70;99.90;;;;;;4952841;28;20042;-87
2022/11/11 10:56:28;;;;;;;21.20;12.85;;;11.70;99.90;;;;;;4965996;28;20710;-87
2022/11/11 10:59:25;;;;;;;20.10;13.18;;;11.70;99.90;;;;;;4944138;28;20451;-88
2022/11/11 11:01:50;;;;;;;21.98;13.27;;;11.70;99.90;;;;;;4963059;28;20118;-88
2022/11/11 11:04:44;;;;;;;19.25;12.75;;;11.30;99.90;;;;;;4950136;28;20125;-87
2022/11/11 11:07:14;;;;;;;19.48;12.48;;;11.70;99.90;;;;;;4951676;28;20041;-87
2022/11/11 11:10:01;;;;;;;20.05;12.80;;;11.70;99.90;;;;;;4952359;28;20039;-87
2022/11/11 11:12:46;;;;;;;21.30;13.23;;;11.80;99.90;;;;;;4968321;28;20504;-87
2022/11/11 11:15:24;;;;;;;19.27;12.52;;;11.80;99.90;;;;;;4969000;28;20054;-87
2022/11/11 11:18:04;;;;;;;20.30;13.27;;;11.80;99.90;;;;;;4951820;28;20042;-87
2022/11/11 11:20:30;;;;;;;22.25;13.27;;;11.90;99.90;;;;;;4953242;28;20134;-87
2022/11/11 11:22:58;;;;;;;21.55;13.07;;;11.90;99.90;;;;;;4936388;28;20158;-87
2022/11/11 11:25:28;;;;;;;21.45;13.73;;;11.90;99.90;;;;;;4937839;28;20404;-88
2022/11/11 11:28:07;;;;;;;21.25;13.63;;;12.00;99.90;;;;;;4952128;28;20045;-87
2022/11/11 11:30:33;;;;;;;18.55;12.80;;;12.00;99.90;;;;;;4966670;28;20499;-86
2022/11/11 11:33:04;;;;;;;19.48;12.80;;;12.10;99.90;;;;;;4940146;28;20045;-88
2022/11/11 11:35:37;;;;;;;18.83;12.40;;;12.00;99.90;;;;;;4941128;28;20039;-87
2022/11/11 11:38:05;;;;;;;20.08;12.85;;;12.00;99.90;;;;;;4956971;28;20049;-87
2022/11/11 11:40:57;;;;;;;22.58;13.13;;;12.60;99.90;;;;;;4948615;28;20458;-87
2022/11/11 11:43:41;;;;;;;20.60;12.95;;;12.00;99.90;;;;;;4952049;28;20108;-85
2022/11/11 11:46:26;;;;;;;21.60;13.32;;;12.00;99.90;;;;;;4966818;28;20323;-85
2022/11/11 11:49:25;;;;;;;20.40;12.85;;;12.00;99.90;;;;;;4963030;28;20105;-84
2022/11/11 11:52:13;;;;;;;20.67;12.70;;;12.00;99.90;;;;;;4956081;28;20451;-85
2022/11/11 11:54:50;;;;;;;19.35;13.10;;;12.00;99.90;;;;;;4971355;28;20522;-84
2022/11/11 11:57:34;;;;;;;20.88;12.93;;;12.00;99.90;;;;;;4969034;28;20128;-85
2022/11/11 12:00:18;;;;;;;20.55;12.80;;;12.00;99.90;;;;;;4966173;28;20439;-84
2022/11/11 12:02:50;;;;;;;19.83;12.85;;;12.00;99.90;;;;;;4956426;28;20088;-85
2022/11/11 12:05:36;;;;;;;21.23;12.93;;;11.90;99.90;;;;;;4956497;28;20039;-84
2022/11/11 12:08:20;;;;;;;19.15;12.13;;;12.00;99.90;;;;;;4947807;28;20066;-85
2022/11/11 12:11:27;;;;;;;20.52;13.60;;;12.00;99.90;;;;;;4953326;28;20050;-85
2022/11/11 12:14:11;;;;;;;19.52;12.13;;;12.00;99.90;;;;;;4970036;28;20106;-86
2022/11/11 12:16:46;;;;;;;21.13;12.88;;;11.90;99.90;;;;;;4954610;28;20557;-85
2022/11/11 12:19:28;;;;;;;18.42;12.02;;;11.90;99.90;;;;;;4967797;28;20073;-84
2022/11/11 12:21:54;;;;;;;20.85;12.57;;;11.90;99.90;;;;;;4970288;28;20038;-85
2022/11/11 12:24:30;;;;;;;22.70;12.55;;;11.80;99.90;;;;;;4955008;28;20112;-84
2022/11/11 12:27:27;;;;;;;19.58;12.68;;;11.80;99.90;;;;;;4952667;28;20132;-85
2022/11/11 12:30:27;;;;;;;17.33;11.95;;;11.80;99.90;;;;;;4944689;28;20042;-86
2022/11/11 12:32:53;;;;;;;20.30;12.07;;;11.80;99.90;;;;;;4953897;28;20035;-86
2022/11/11 12:35:21;;;;;;;19.70;11.93;;;11.80;99.90;;;;;;4955212;28;20056;-83
2022/11/11 12:38:11;;;;;;;21.10;11.80;;;11.80;99.90;;;;;;4948969;28;20097;-84
2022/11/11 12:40:48;;;;;;;19.50;12.05;;;11.80;99.90;;;;;;4955342;28;20046;-86
2022/11/11 12:43:17;;;;;;;21.50;12.68;;;11.80;99.90;;;;;;4946673;28;20047;-85
2022/11/11 12:46:07;;;;;;;21.30;12.48;;;11.80;99.90;;;;;;4954883;28;20391;-86
2022/11/11 12:49:04;;;;;;;19.02;12.98;;;11.80;99.90;;;;;;4970033;28;20149;-85
2022/11/11 12:51:52;;;;;;;19.92;12.27;;;11.80;99.90;;;;;;4952661;28;20046;-86
2022/11/11 12:54:21;;;;;;;19.08;11.63;;;11.70;99.90;;;;;;4954588;28;20415;-84
2022/11/11 12:56:53;;;;;;;18.55;11.80;;;11.20;99.90;;;;;;4955553;28;20412;-85
2022/11/11 12:59:51;;;;;;;19.35;12.07;;;11.70;99.90;;;;;;4955284;28;20046;-85
2022/11/11 13:02:37;;;;;;;19.95;12.27;;;11.80;99.90;;;;;;4952891;28;20196;-85
2022/11/11 13:05:20;;;;;;;18.60;11.35;;;11.80;99.90;;;;;;4954138;28;20038;-85
2022/11/11 13:08:23;;;;;;;18.20;11.85;;;11.80;99.90;;;;;;4954962;28;20310;-85
2022/11/11 13:11:32;;;;;;;20.73;11.93;;;11.80;99.90;;;;;;4954382;28;20460;-83
2022/11/11 13:14:21;;;;;;;18.67;11.40;;;11.80;99.90;;;;;;4945827;28;20061;-85
2022/11/11 13:16:50;;;;;;;18.77;11.50;;;11.80;99.90;;;;;;4954640;28;20530;-82
2022/11/11 13:19:28;;;;;;;19.95;11.77;;;11.90;99.90;;;;;;4969858;28;20125;-85
2022/11/11 13:22:07;;;;;;;15.65;10.13;;;11.80;99.90;;;;;;4954553;28;20322;-86
2022/11/11 13:24:35;;;;;;;21.40;12.30;;;11.80;99.90;;;;;;4965357;28;20035;-85
2022/11/11 13:27:19;;;;;;;20.15;11.82;;;11.80;99.90;;;;;;4937815;28;20053;-87
2022/11/11 13:30:05;;;;;;;19.33;11.65;;;11.80;99.90;;;;;;4967240;28;20399;-85
2022/11/11 13:32:43;;;;;;;16.90;11.38;;;11.80;99.90;;;;;;4953986;28;20368;-84
2022/11/11 13:35:30;;;;;;;20.52;11.68;;;11.80;99.90;;;;;;4953696;28;20046;-84
2022/11/11 13:37:56;;;;;;;17.33;11.15;;;11.80;99.90;;;;;;4969121;28;20062;-85
2022/11/11 13:40:56;;;;;;;17.33;11.35;;;11.80;99.90;;;;;;4933529;28;20094;-85
2022/11/11 13:43:34;;;;;;;18.63;11.18;;;11.80;99.90;;;;;;4927092;28;20050;-86
2022/11/11 13:46:03;;;;;;;18.38;11.57;;;11.80;99.90;;;;;;4947498;28;20501;-86
2022/11/11 13:48:45;;;;;;;18.67;11.55;;;11.70;99.90;;;;;;4957581;28;20608;-85
2022/11/11 13:51:18;;;;;;;18.02;11.20;;;11.80;99.90;;;;;;4945410;28;20050;-87
2022/11/11 13:53:46;;;;;;;18.02;11.15;;;11.70;99.90;;;;;;4963079;28;20043;-85
2022/11/11 13:56:25;;;;;;;18.88;11.70;;;12.10;99.90;;;;;;4931227;28;20427;-84
2022/11/11 13:58:52;;;;;;;18.90;11.52;;;11.70;99.90;;;;;;4949048;28;20046;-86
2022/11/11 14:01:18;;;;;;;20.08;12.23;;;11.70;99.90;;;;;;4948315;28;20519;-84
2022/11/11 14:03:43;;;;;;;19.17;12.05;;;11.70;99.90;;;;;;4928981;28;20035;-85
2022/11/11 14:06:15;;;;;;;20.48;11.93;;;11.70;99.90;;;;;;4948717;28;20134;-86